createdAt,value
2022-09-11T00:01:16.487Z,47.25
2022-09-11T00:03:45.200Z,40.15
2022-09-11T00:06:14.773Z,33.95
2022-09-11T00:08:42.637Z,42.67
2022-09-11T00:11:17.450Z,46.38
2022-09-11T00:13:50.113Z,46.75
2022-09-11T00:16:44.811Z,57.30
2022-09-11T00:19:19.956Z,47.05
2022-09-11T00:21:47.911Z,59.25
2022-09-11T00:24:14.862Z,43.08
2022-09-11T00:26:42.603Z,53.97
2022-09-11T00:29:10.101Z,59.45
2022-09-11T00:31:38.572Z,41.80
2022-09-11T00:34:06.862Z,56.58
2022-09-11T00:36:36.216Z,80.28
2022-09-11T00:39:03.909Z,207.70
2022-09-11T00:41:38.102Z,92.30
2022-09-11T00:44:28.297Z,42.95
2022-09-11T00:46:58.292Z,64.97
2022-09-11T00:49:32.934Z,32.22
2022-09-11T00:52:22.469Z,35.70
2022-09-11T00:54:56.523Z,36.88
2022-09-11T00:57:27.098Z,78.65
2022-09-11T00:59:58.412Z,70.68
2022-09-11T01:02:28.359Z,43.63
2022-09-11T01:04:56.796Z,48.90
2022-09-11T01:07:25.940Z,60.25
2022-09-11T01:09:53.792Z,49.83
2022-09-11T01:12:28.725Z,40.45
2022-09-11T01:15:05.910Z,39.67
2022-09-11T01:17:39.130Z,35.00
2022-09-11T01:20:30.066Z,35.35
2022-09-11T01:23:32.825Z,44.15
2022-09-11T01:26:18.918Z,44.97
2022-09-11T01:29:10.619Z,35.55
2022-09-11T01:31:46.909Z,38.97
2022-09-11T01:34:36.024Z,117.90
2022-09-11T01:37:08.522Z,115.72
2022-09-11T01:39:42.423Z,43.75
2022-09-11T01:42:16.833Z,65.00
2022-09-11T01:44:51.488Z,59.53
2022-09-11T01:47:20.768Z,53.47
2022-09-11T01:50:05.176Z,71.90
2022-09-11T01:52:53.387Z,66.43
2022-09-11T01:55:36.516Z,105.72
2022-09-11T01:58:08.203Z,55.78
2022-09-11T02:00:41.208Z,50.83
2022-09-11T02:03:17.435Z,54.83
2022-09-11T02:05:51.132Z,44.60
2022-09-11T02:08:45.197Z,37.35
2022-09-11T02:11:14.286Z,108.85
2022-09-11T02:14:10.356Z,63.08
2022-09-11T02:16:45.377Z,40.00
2022-09-11T02:19:16.569Z,40.65
2022-09-11T02:21:45.172Z,43.83
2022-09-11T02:24:12.041Z,36.80
2022-09-11T02:26:42.920Z,52.60
2022-09-11T02:29:11.675Z,35.13
2022-09-11T02:31:39.996Z,54.58
2022-09-11T02:34:06.939Z,31.63
2022-09-11T02:36:40.536Z,130.50
2022-09-11T02:39:16.368Z,57.53
2022-09-11T02:41:43.874Z,49.92
2022-09-11T02:44:36.483Z,59.13
2022-09-11T02:47:24.978Z,26.02
2022-09-11T02:50:22.017Z,31.27
2022-09-11T02:52:52.215Z,42.63
2022-09-11T02:55:48.805Z,28.17
2022-09-11T02:58:33.111Z,39.33
2022-09-11T03:01:01.695Z,36.00
2022-09-11T03:03:41.345Z,33.78
2022-09-11T03:06:21.483Z,29.70
2022-09-11T03:08:48.702Z,38.25
2022-09-11T03:11:20.171Z,61.17
2022-09-11T03:13:49.097Z,35.65
2022-09-11T03:16:17.051Z,42.30
2022-09-11T03:18:44.608Z,44.25
2022-09-11T03:21:11.799Z,38.63
2022-09-11T03:23:38.736Z,44.58
2022-09-11T03:26:05.663Z,37.17
2022-09-11T03:28:34.106Z,38.53
2022-09-11T03:31:07.819Z,51.70
2022-09-11T03:33:35.112Z,34.30
2022-09-11T03:36:02.248Z,36.53
2022-09-11T03:38:29.184Z,43.35
2022-09-11T03:40:56.012Z,36.38
2022-09-11T03:43:23.346Z,35.65
2022-09-11T03:45:54.191Z,37.67
2022-09-11T03:48:21.322Z,36.63
2022-09-11T03:50:49.172Z,34.03
2022-09-11T03:53:16.012Z,32.60
2022-09-11T03:55:44.912Z,40.85
2022-09-11T03:58:12.388Z,33.88
2022-09-11T04:00:46.578Z,46.67
2022-09-11T04:03:15.895Z,35.38
2022-09-11T04:05:55.951Z,34.13
2022-09-11T04:08:22.884Z,36.30
2022-09-11T04:10:49.868Z,37.30
2022-09-11T04:13:16.687Z,37.78
2022-09-11T04:15:43.530Z,35.13
2022-09-11T04:18:10.392Z,34.22
2022-09-11T04:20:41.352Z,31.58
2022-09-11T04:23:09.131Z,39.28
2022-09-11T04:25:36.093Z,32.85
2022-09-11T04:28:05.010Z,28.98
2022-09-11T04:30:34.622Z,30.50
2022-09-11T04:33:02.367Z,29.48
2022-09-11T04:35:29.945Z,34.63
2022-09-11T04:37:58.591Z,40.95
2022-09-11T04:40:26.619Z,36.33
2022-09-11T04:42:53.592Z,44.08
2022-09-11T04:45:20.392Z,36.95
2022-09-11T04:47:47.597Z,42.72
2022-09-11T04:50:14.553Z,47.78
2022-09-11T04:52:45.180Z,42.28
2022-09-11T04:55:11.979Z,34.67
2022-09-11T04:57:38.738Z,32.88
2022-09-11T05:00:06.927Z,32.38
2022-09-11T05:02:37.498Z,42.38
2022-09-11T05:05:05.340Z,42.05
2022-09-11T05:07:32.191Z,31.02
2022-09-11T05:10:00.853Z,41.08
2022-09-11T05:12:28.675Z,34.00
2022-09-11T05:14:55.546Z,34.40
2022-09-11T05:17:22.756Z,41.72
2022-09-11T05:19:49.738Z,29.75
2022-09-11T05:22:16.795Z,30.35
2022-09-11T05:24:49.729Z,31.25
2022-09-11T05:27:17.184Z,24.88
2022-09-11T05:29:44.726Z,28.00
2022-09-11T05:32:14.011Z,24.83
2022-09-11T05:34:41.621Z,30.40
2022-09-11T05:37:11.065Z,30.98
2022-09-11T05:39:43.030Z,26.33
2022-09-11T05:42:11.836Z,32.65
2022-09-11T05:44:41.927Z,29.17
2022-09-11T05:47:08.858Z,31.77
2022-09-11T05:49:35.783Z,29.73
2022-09-11T05:52:03.413Z,24.92
2022-09-11T05:54:32.429Z,22.63
2022-09-11T05:57:06.912Z,21.23
2022-09-11T05:59:36.656Z,27.20
2022-09-11T06:02:04.662Z,21.02
2022-09-11T06:04:40.383Z,18.20
2022-09-11T06:07:08.440Z,23.25
2022-09-11T06:09:37.072Z,21.98
2022-09-11T06:12:04.822Z,17.42
2022-09-11T06:14:32.118Z,29.92
2022-09-11T06:17:01.681Z,20.95
2022-09-11T06:19:33.843Z,22.50
2022-09-11T06:22:03.035Z,20.40
2022-09-11T06:24:34.324Z,21.02
2022-09-11T06:27:01.300Z,19.73
2022-09-11T06:29:32.354Z,21.35
2022-09-11T06:32:00.896Z,20.83
2022-09-11T06:34:31.775Z,18.20
2022-09-11T06:39:28.782Z,19.90
2022-09-11T06:41:57.880Z,19.73
2022-09-11T06:44:28.607Z,17.73
2022-09-11T06:46:59.448Z,19.90
2022-09-11T06:49:26.881Z,16.58
2022-09-11T06:52:13.468Z,19.88
2022-09-11T06:54:47.325Z,15.93
2022-09-11T06:57:16.070Z,18.33
2022-09-11T06:59:43.147Z,16.02
2022-09-11T07:02:10.625Z,15.88
2022-09-11T07:04:38.262Z,18.17
2022-09-11T07:07:05.534Z,16.77
2022-09-11T07:09:33.334Z,16.98
2022-09-11T07:12:01.243Z,17.40
2022-09-11T07:14:30.553Z,18.85
2022-09-11T07:17:07.360Z,20.02
2022-09-11T07:19:38.673Z,16.33
2022-09-11T07:22:05.876Z,16.65
2022-09-11T07:24:34.821Z,19.23
2022-09-11T07:27:01.837Z,17.00
2022-09-11T07:29:32.729Z,13.55
2022-09-11T07:31:59.927Z,13.35
2022-09-11T07:34:28.709Z,13.63
2022-09-11T07:36:58.545Z,14.80
2022-09-11T07:39:28.977Z,13.30
2022-09-11T07:42:01.289Z,11.07
2022-09-11T07:44:32.340Z,12.25
2022-09-11T07:47:04.259Z,11.15
2022-09-11T07:49:36.408Z,12.45
2022-09-11T07:52:04.425Z,12.32
2022-09-11T07:54:51.275Z,10.35
2022-09-11T07:57:21.995Z,10.00
2022-09-11T07:59:49.895Z,10.57
2022-09-11T08:02:18.178Z,8.80
2022-09-11T08:04:45.220Z,8.90
2022-09-11T08:07:12.258Z,9.25
2022-09-11T08:09:39.099Z,8.43
2022-09-11T08:12:06.903Z,9.77
2022-09-11T08:14:36.991Z,11.05
2022-09-11T08:17:24.283Z,9.65
2022-09-11T08:19:52.349Z,8.65
2022-09-11T08:22:19.541Z,9.43
2022-09-11T08:24:48.508Z,8.77
2022-09-11T08:27:18.387Z,8.68
2022-09-11T08:29:46.139Z,8.63
2022-09-11T08:32:13.620Z,8.63
2022-09-11T08:34:40.880Z,8.80
2022-09-11T08:37:08.104Z,8.55
2022-09-11T08:39:35.892Z,7.55
2022-09-11T08:42:16.107Z,7.50
2022-09-11T08:44:56.548Z,6.50
2022-09-11T08:47:38.508Z,7.25
2022-09-11T08:50:22.052Z,7.68
2022-09-11T08:52:50.121Z,6.38
2022-09-11T08:55:35.452Z,5.20
2022-09-11T08:58:16.095Z,5.38
2022-09-11T09:01:04.422Z,5.65
2022-09-11T09:03:53.009Z,4.82
2022-09-11T09:06:25.918Z,6.32
2022-09-11T09:09:22.041Z,4.88
2022-09-11T09:12:16.055Z,5.45
2022-09-11T09:14:54.869Z,5.13
2022-09-11T09:17:53.867Z,3.50
2022-09-11T09:20:42.487Z,2.92
2022-09-11T09:23:24.646Z,3.75
2022-09-11T09:25:54.303Z,4.18
2022-09-11T09:28:21.140Z,2.80
2022-09-11T09:30:57.879Z,4.20
2022-09-11T09:33:37.250Z,3.65
2022-09-11T09:36:26.186Z,3.35
2022-09-11T09:38:54.096Z,3.03
2022-09-11T09:41:39.164Z,3.80
2022-09-11T09:44:27.972Z,5.35
2022-09-11T09:46:56.135Z,5.40
2022-09-11T09:49:27.642Z,2.95
2022-09-11T09:52:02.218Z,3.42
2022-09-11T09:54:34.472Z,3.08
2022-09-11T09:57:05.021Z,4.40
2022-09-11T09:59:43.495Z,2.55
2022-09-11T10:02:10.284Z,2.92
2022-09-11T10:04:37.282Z,3.60
2022-09-11T10:07:14.073Z,2.83
2022-09-11T10:09:50.218Z,3.83
2022-09-11T10:12:26.466Z,2.38
2022-09-11T10:15:01.367Z,3.00
2022-09-11T10:17:33.376Z,1.98
2022-09-11T10:20:18.561Z,2.35
2022-09-11T10:22:49.475Z,3.30
2022-09-11T10:25:16.331Z,1.77
2022-09-11T10:28:04.454Z,1.85
2022-09-11T10:30:33.827Z,2.65
2022-09-11T10:33:04.284Z,2.58
2022-09-11T10:35:33.585Z,1.55
2022-09-11T10:38:17.769Z,1.45
2022-09-11T10:41:08.827Z,1.55
2022-09-11T10:43:38.377Z,1.42
2022-09-11T10:46:28.699Z,2.00
2022-09-11T10:49:15.810Z,2.20
2022-09-11T10:51:57.142Z,1.30
2022-09-11T10:54:39.874Z,2.95
2022-09-11T10:57:21.565Z,2.60
2022-09-11T11:00:11.675Z,1.75
2022-09-11T11:02:42.665Z,1.55
2022-09-11T11:05:19.911Z,2.22
2022-09-11T11:08:06.253Z,1.67
2022-09-11T11:10:39.245Z,3.45
2022-09-11T11:13:14.595Z,2.17
2022-09-11T11:16:03.968Z,2.17
2022-09-11T11:19:02.663Z,2.53
2022-09-11T11:22:01.894Z,1.90
2022-09-11T11:24:28.647Z,2.20
2022-09-11T11:27:32.866Z,1.60
2022-09-11T11:30:15.942Z,3.35
2022-09-11T11:32:48.724Z,2.15
2022-09-11T11:37:50.104Z,2.15
2022-09-11T11:40:27.305Z,2.22
2022-09-11T11:43:02.867Z,1.63
2022-09-11T11:45:38.940Z,1.65
2022-09-11T11:48:25.395Z,2.20
2022-09-11T11:51:00.431Z,2.17
2022-09-11T11:53:42.166Z,1.60
2022-09-11T11:56:14.986Z,2.08
2022-09-11T12:01:37.098Z,3.22
2022-09-11T12:04:45.116Z,1.30
2022-09-11T12:07:33.071Z,3.40
2022-09-11T12:10:01.629Z,1.45
2022-09-11T12:12:43.015Z,3.55
2022-09-11T12:15:19.860Z,3.42
2022-09-11T12:17:49.979Z,1.25
2022-09-11T12:20:34.562Z,1.27
2022-09-11T12:23:01.952Z,2.30
2022-09-11T12:25:28.670Z,2.25
2022-09-11T12:28:10.782Z,1.40
2022-09-11T12:31:05.122Z,1.10
2022-09-11T12:33:41.129Z,2.10
2022-09-11T12:36:29.677Z,2.92
2022-09-11T12:39:05.346Z,1.42
2022-09-11T12:41:36.380Z,4.28
2022-09-11T12:44:04.798Z,1.10
2022-09-11T12:46:31.679Z,2.17
2022-09-11T12:49:21.037Z,1.13
2022-09-11T12:51:55.115Z,1.30
2022-09-11T12:54:33.515Z,1.75
2022-09-11T12:57:07.427Z,1.55
2022-09-11T12:59:43.609Z,0.98
2022-09-11T13:02:34.363Z,0.80
2022-09-11T13:05:02.754Z,1.42
2022-09-11T13:07:35.507Z,1.10
2022-09-11T13:12:50.164Z,3.65
2022-09-11T13:15:43.795Z,0.95
2022-09-11T13:18:32.136Z,2.03
2022-09-11T13:21:04.917Z,1.58
2022-09-11T13:26:01.083Z,1.27
2022-09-11T13:28:31.705Z,0.75
2022-09-11T13:31:04.750Z,1.45
2022-09-11T13:33:32.576Z,1.73
2022-09-11T13:36:02.696Z,1.02
2022-09-11T13:38:31.350Z,1.20
2022-09-11T13:41:06.248Z,1.48
2022-09-11T13:43:42.411Z,1.67
2022-09-11T13:46:24.318Z,1.45
2022-09-11T13:48:55.861Z,1.00
2022-09-11T13:51:27.304Z,1.38
2022-09-11T13:54:28.819Z,1.00
2022-09-11T13:56:55.543Z,1.80
2022-09-11T13:59:44.565Z,0.93
2022-09-11T14:02:40.672Z,2.40
2022-09-11T14:05:16.564Z,0.80
2022-09-11T14:08:07.502Z,0.80
2022-09-11T14:10:43.470Z,0.70
2022-09-11T14:13:20.035Z,0.63
2022-09-11T14:16:11.413Z,0.68
2022-09-11T14:18:46.184Z,0.93
2022-09-11T14:21:16.201Z,1.05
2022-09-11T14:23:51.703Z,0.93
2022-09-11T14:26:21.147Z,1.42
2022-09-11T14:29:00.336Z,1.23
2022-09-11T14:31:37.132Z,0.73
2022-09-11T14:34:17.859Z,0.95
2022-09-11T14:36:46.774Z,1.95
2022-09-11T14:39:39.636Z,1.80
2022-09-11T14:42:09.069Z,0.73
2022-09-11T14:44:39.459Z,0.80
2022-09-11T14:47:13.745Z,2.58
2022-09-11T14:49:40.595Z,2.08
2022-09-11T14:52:10.014Z,0.80
2022-09-11T14:54:37.478Z,1.05
2022-09-11T14:57:20.792Z,2.70
2022-09-11T14:59:47.971Z,1.45
2022-09-11T15:02:21.352Z,1.40
2022-09-11T15:04:49.320Z,1.00
2022-09-11T15:07:17.408Z,0.80
2022-09-11T15:09:44.240Z,1.05
2022-09-11T15:12:13.142Z,2.08
2022-09-11T15:14:58.490Z,3.72
2022-09-11T15:17:30.476Z,1.35
2022-09-11T15:20:00.435Z,1.17
2022-09-11T15:22:28.086Z,1.73
2022-09-11T15:24:56.553Z,1.20
2022-09-11T15:27:25.198Z,1.40
2022-09-11T15:29:52.354Z,1.65
2022-09-11T15:32:20.518Z,1.40
2022-09-11T15:34:47.759Z,1.33
2022-09-11T15:37:16.875Z,3.88
2022-09-11T15:39:44.204Z,1.50
2022-09-11T15:42:11.611Z,1.80
2022-09-11T15:44:38.519Z,1.42
2022-09-11T15:47:06.195Z,1.27
2022-09-11T15:49:39.232Z,0.95
2022-09-11T15:52:06.011Z,3.80
2022-09-11T15:54:32.826Z,3.25
2022-09-11T15:56:59.821Z,2.85
2022-09-11T15:59:26.680Z,1.15
2022-09-11T16:01:53.859Z,1.08
2022-09-11T16:04:22.977Z,0.80
2022-09-11T16:06:50.387Z,1.77
2022-09-11T16:09:29.301Z,0.82
2022-09-11T16:11:56.394Z,1.30
2022-09-11T16:14:28.533Z,1.33
2022-09-11T16:16:55.970Z,1.58
2022-09-11T16:19:27.817Z,1.20
2022-09-11T16:21:56.970Z,1.33
2022-09-11T16:24:25.655Z,1.10
2022-09-11T16:26:56.040Z,1.55
2022-09-11T16:29:25.605Z,5.10
2022-09-11T16:31:52.789Z,1.00
2022-09-11T16:34:19.581Z,1.75
2022-09-11T16:36:46.818Z,1.33
2022-09-11T16:39:16.559Z,0.70
2022-09-11T16:41:43.545Z,1.10
2022-09-11T16:44:14.596Z,0.90
2022-09-11T16:46:42.364Z,5.40
2022-09-11T16:49:10.313Z,1.30
2022-09-11T16:51:37.265Z,2.10
2022-09-11T16:54:04.339Z,1.73
2022-09-11T16:56:31.376Z,2.50
2022-09-11T16:58:58.749Z,1.05
2022-09-11T17:01:27.463Z,1.92
2022-09-11T17:03:57.232Z,0.80
2022-09-11T17:06:29.998Z,2.05
2022-09-11T17:08:59.849Z,2.65
2022-09-11T17:11:28.464Z,0.70
2022-09-11T17:13:55.506Z,0.80
2022-09-11T17:16:26.001Z,3.25
2022-09-11T17:18:56.457Z,2.00
2022-09-11T17:21:24.666Z,0.85
2022-09-11T17:23:55.476Z,1.00
2022-09-11T17:26:23.237Z,1.00
2022-09-11T17:28:51.820Z,0.70
2022-09-11T17:31:19.721Z,1.30
2022-09-11T17:33:48.315Z,1.05
2022-09-11T17:36:18.531Z,2.53
2022-09-11T17:38:48.278Z,1.10
2022-09-11T17:41:16.630Z,0.60
2022-09-11T17:43:43.619Z,2.65
2022-09-11T17:46:14.938Z,1.10
2022-09-11T17:48:43.045Z,4.35
2022-09-11T17:51:27.826Z,4.18
2022-09-11T17:53:59.064Z,1.10
2022-09-11T17:56:30.922Z,1.30
2022-09-11T17:58:59.771Z,3.80
2022-09-11T18:01:28.775Z,1.23
2022-09-11T18:03:58.283Z,1.27
2022-09-11T18:06:29.297Z,2.13
2022-09-11T18:09:02.174Z,2.78
2022-09-11T18:12:52.371Z,4.20
2022-09-11T18:16:13.838Z,2.38
2022-09-11T18:18:43.430Z,4.43
2022-09-11T18:21:11.653Z,2.58
2022-09-11T18:23:40.542Z,1.45
2022-09-11T18:26:10.329Z,2.95
2022-09-11T18:28:39.771Z,1.10
2022-09-11T18:31:07.638Z,1.83
2022-09-11T18:33:34.820Z,1.30
2022-09-11T18:36:08.488Z,4.43
2022-09-11T18:38:35.969Z,2.05
2022-09-11T18:41:03.241Z,1.92
2022-09-11T18:43:30.055Z,2.38
2022-09-11T18:46:01.273Z,6.22
2022-09-11T18:48:28.363Z,1.40
2022-09-11T18:50:55.417Z,1.65
2022-09-11T18:53:22.346Z,1.10
2022-09-11T18:56:00.471Z,2.20
2022-09-11T18:58:34.997Z,2.53
2022-09-11T19:01:11.557Z,2.20
2022-09-11T19:03:40.261Z,1.45
2022-09-11T19:06:12.708Z,2.03
2022-09-11T19:08:41.202Z,1.58
2022-09-11T19:11:15.088Z,4.70
2022-09-11T19:13:43.444Z,1.23
2022-09-11T19:16:10.618Z,1.80
2022-09-11T19:18:39.093Z,1.50
2022-09-11T19:21:12.540Z,1.60
2022-09-11T19:23:42.121Z,2.20
2022-09-11T19:26:21.968Z,1.20
2022-09-11T19:28:50.416Z,2.80
2022-09-11T19:31:21.391Z,1.75
2022-09-11T19:33:51.277Z,2.00
2022-09-11T19:36:22.819Z,2.30
2022-09-11T19:38:51.787Z,3.35
2022-09-11T19:41:23.272Z,1.95
2022-09-11T19:43:50.797Z,2.45
2022-09-11T19:46:26.390Z,3.53
2022-09-11T19:48:56.954Z,1.70
2022-09-11T19:51:27.322Z,2.03
2022-09-11T19:53:56.521Z,2.90
2022-09-11T19:56:24.766Z,3.33
2022-09-11T19:58:52.068Z,7.63
2022-09-11T20:01:25.346Z,5.40
2022-09-11T20:03:54.367Z,7.63
2022-09-11T20:06:24.792Z,5.47
2022-09-11T20:09:07.651Z,5.57
2022-09-11T20:14:02.190Z,4.93
2022-09-11T20:16:29.291Z,8.05
2022-09-11T20:19:00.481Z,5.65
2022-09-11T20:21:27.703Z,6.78
2022-09-11T20:23:55.631Z,7.07
2022-09-11T20:26:25.601Z,6.68
2022-09-11T20:28:54.683Z,5.72
2022-09-11T20:31:28.287Z,4.70
2022-09-11T20:33:55.791Z,4.40
2022-09-11T20:36:23.718Z,4.35
2022-09-11T20:38:52.437Z,4.88
2022-09-11T20:41:20.970Z,2.92
2022-09-11T20:43:47.998Z,2.30
2022-09-11T20:46:16.159Z,3.53
2022-09-11T20:48:43.173Z,5.82
2022-09-11T20:51:12.239Z,2.47
2022-09-11T20:53:41.785Z,1.73
2022-09-11T20:56:11.213Z,3.55
2022-09-11T20:58:38.897Z,3.83
2022-09-11T21:01:07.419Z,1.77
2022-09-11T21:03:34.646Z,3.17
2022-09-11T21:06:09.801Z,2.72
2022-09-11T21:08:36.936Z,3.80
2022-09-11T21:11:05.167Z,2.53
2022-09-11T21:13:37.340Z,2.40
2022-09-11T21:16:12.650Z,7.57
2022-09-11T21:18:44.211Z,6.57
2022-09-11T21:21:11.103Z,4.85
2022-09-11T21:23:37.937Z,7.18
2022-09-11T21:26:09.606Z,7.03
2022-09-11T21:28:36.743Z,6.13
2022-09-11T21:31:04.350Z,3.42
2022-09-11T21:33:33.513Z,5.05
2022-09-11T21:36:00.633Z,2.78
2022-09-11T21:38:29.574Z,2.17
2022-09-11T21:40:59.987Z,5.22
2022-09-11T21:43:27.449Z,5.28
2022-09-11T21:45:54.609Z,6.40
2022-09-11T21:48:21.594Z,4.35
2022-09-11T21:50:49.184Z,4.72
2022-09-11T21:53:20.515Z,5.15
2022-09-11T21:55:51.945Z,3.03
2022-09-11T21:58:21.048Z,3.65
2022-09-11T22:00:48.973Z,3.45
2022-09-11T22:03:18.359Z,3.90
2022-09-11T22:05:49.317Z,2.40
2022-09-11T22:08:19.354Z,3.30
2022-09-11T22:10:49.387Z,2.58
2022-09-11T22:13:18.422Z,2.70
2022-09-11T22:15:48.276Z,2.30
2022-09-11T22:18:16.354Z,2.10
2022-09-11T22:20:43.414Z,4.78
2022-09-11T22:23:16.383Z,3.47
2022-09-11T22:25:44.712Z,3.00
2022-09-11T22:28:12.558Z,2.42
2022-09-11T22:30:44.335Z,2.10
2022-09-11T22:33:11.363Z,3.33
2022-09-11T22:35:38.377Z,3.83
2022-09-11T22:38:05.284Z,3.08
2022-09-11T22:40:32.438Z,2.50
2022-09-11T22:42:59.611Z,3.00
2022-09-11T22:45:26.800Z,2.63
2022-09-11T22:47:53.676Z,4.50
2022-09-11T22:50:20.467Z,2.35
2022-09-11T22:52:47.267Z,2.80
2022-09-11T22:55:17.625Z,3.03
2022-09-11T22:57:44.365Z,7.97
2022-09-11T23:00:12.886Z,2.65
2022-09-11T23:02:39.676Z,3.13
2022-09-11T23:05:25.976Z,2.90
2022-09-11T23:07:53.936Z,4.85
2022-09-11T23:10:21.887Z,2.35
2022-09-11T23:12:48.846Z,3.22
2022-09-11T23:15:17.474Z,5.75
2022-09-11T23:17:44.518Z,2.63
2022-09-11T23:20:11.710Z,3.67
2022-09-11T23:22:38.605Z,2.65
2022-09-11T23:25:06.664Z,6.38
2022-09-11T23:27:33.423Z,4.13
2022-09-11T23:30:00.372Z,4.03
2022-09-11T23:32:27.187Z,5.43
2022-09-11T23:34:54.193Z,8.20
2022-09-11T23:37:21.215Z,3.63
2022-09-11T23:39:48.152Z,2.88
2022-09-11T23:42:15.284Z,3.08
2022-09-11T23:44:42.029Z,3.78
2022-09-11T23:47:09.111Z,5.53
2022-09-11T23:49:36.608Z,2.83
2022-09-11T23:52:04.670Z,3.83
2022-09-11T23:54:31.622Z,4.57
2022-09-11T23:56:59.052Z,4.47
2022-09-11T23:59:26.232Z,4.22
